sensor_id;sensor_type;location;lat;lon;timestamp;P1;durP1;ratioP1;P2;durP2;ratioP2
18693;SDS011;9477;51.414;10.362;2022-10-03T00:00:29;17.07;;;3.00;;
18693;SDS011;9477;51.414;10.362;2022-10-03T00:02:40;14.63;;;2.80;;
18693;SDS011;9477;51.414;10.362;2022-10-03T00:05:23;13.87;;;2.73;;
18693;SDS011;9477;51.414;10.362;2022-10-03T00:07:44;12.40;;;2.50;;
18693;SDS011;9477;51.414;10.362;2022-10-03T00:09:59;11.60;;;2.20;;
18693;SDS011;9477;51.414;10.362;2022-10-03T00:12:19;14.67;;;2.57;;
18693;SDS011;9477;51.414;10.362;2022-10-03T00:14:39;19.87;;;3.40;;
18693;SDS011;9477;51.414;10.362;2022-10-03T00:16:49;12.50;;;2.57;;
18693;SDS011;9477;51.414;10.362;2022-10-03T00:18:57;14.77;;;2.40;;
18693;SDS011;9477;51.414;10.362;2022-10-03T00:21:13;11.73;;;2.70;;
18693;SDS011;9477;51.414;10.362;2022-10-03T00:23:34;13.53;;;3.17;;
18693;SDS011;9477;51.414;10.362;2022-10-03T00:25:42;10.57;;;2.67;;
18693;SDS011;9477;51.414;10.362;2022-10-03T00:27:53;11.53;;;2.50;;
18693;SDS011;9477;51.414;10.362;2022-10-03T00:30:12;14.17;;;2.70;;
18693;SDS011;9477;51.414;10.362;2022-10-03T00:32:23;16.03;;;2.57;;
18693;SDS011;9477;51.414;10.362;2022-10-03T00:34:37;16.10;;;2.40;;
18693;SDS011;9477;51.414;10.362;2022-10-03T00:37:05;18.87;;;2.90;;
18693;SDS011;9477;51.414;10.362;2022-10-03T00:39:25;14.07;;;2.57;;
18693;SDS011;9477;51.414;10.362;2022-10-03T00:41:40;14.03;;;2.30;;
18693;SDS011;9477;51.414;10.362;2022-10-03T00:44:23;12.20;;;2.80;;
18693;SDS011;9477;51.414;10.362;2022-10-03T00:47:10;14.93;;;2.30;;
18693;SDS011;9477;51.414;10.362;2022-10-03T00:49:46;9.93;;;2.20;;
18693;SDS011;9477;51.414;10.362;2022-10-03T00:52:14;21.20;;;2.70;;
18693;SDS011;9477;51.414;10.362;2022-10-03T00:54:32;14.17;;;2.20;;
18693;SDS011;9477;51.414;10.362;2022-10-03T00:56:50;16.33;;;2.50;;
18693;SDS011;9477;51.414;10.362;2022-10-03T00:59:14;14.30;;;2.50;;
18693;SDS011;9477;51.414;10.362;2022-10-03T01:01:32;13.90;;;2.63;;
18693;SDS011;9477;51.414;10.362;2022-10-03T01:03:40;15.93;;;2.60;;
18693;SDS011;9477;51.414;10.362;2022-10-03T01:05:49;15.93;;;2.67;;
18693;SDS011;9477;51.414;10.362;2022-10-03T01:10:38;13.53;;;3.13;;
18693;SDS011;9477;51.414;10.362;2022-10-03T01:12:51;13.20;;;2.50;;
18693;SDS011;9477;51.414;10.362;2022-10-03T01:15:13;14.40;;;2.60;;
18693;SDS011;9477;51.414;10.362;2022-10-03T01:17:26;13.57;;;2.50;;
18693;SDS011;9477;51.414;10.362;2022-10-03T01:22:17;13.30;;;2.93;;
18693;SDS011;9477;51.414;10.362;2022-10-03T01:24:43;13.93;;;3.00;;
18693;SDS011;9477;51.414;10.362;2022-10-03T01:26:57;14.30;;;2.93;;
18693;SDS011;9477;51.414;10.362;2022-10-03T01:29:05;11.80;;;2.73;;
18693;SDS011;9477;51.414;10.362;2022-10-03T01:31:36;14.33;;;2.60;;
18693;SDS011;9477;51.414;10.362;2022-10-03T01:33:45;19.83;;;3.10;;
18693;SDS011;9477;51.414;10.362;2022-10-03T01:35:55;21.53;;;3.30;;
18693;SDS011;9477;51.414;10.362;2022-10-03T01:38:07;15.73;;;3.00;;
18693;SDS011;9477;51.414;10.362;2022-10-03T01:40:21;16.10;;;3.50;;
18693;SDS011;9477;51.414;10.362;2022-10-03T01:42:33;14.77;;;3.00;;
18693;SDS011;9477;51.414;10.362;2022-10-03T01:44:56;14.57;;;3.07;;
18693;SDS011;9477;51.414;10.362;2022-10-03T01:47:14;17.37;;;3.10;;
18693;SDS011;9477;51.414;10.362;2022-10-03T01:49:26;18.83;;;2.93;;
18693;SDS011;9477;51.414;10.362;2022-10-03T01:51:40;19.10;;;3.00;;
18693;SDS011;9477;51.414;10.362;2022-10-03T01:53:57;16.93;;;3.17;;
18693;SDS011;9477;51.414;10.362;2022-10-03T01:56:11;18.70;;;2.90;;
18693;SDS011;9477;51.414;10.362;2022-10-03T01:58:21;9.60;;;2.70;;
18693;SDS011;9477;51.414;10.362;2022-10-03T02:00:34;16.03;;;3.10;;
18693;SDS011;9477;51.414;10.362;2022-10-03T02:02:46;16.93;;;3.20;;
18693;SDS011;9477;51.414;10.362;2022-10-03T02:04:58;11.27;;;2.77;;
18693;SDS011;9477;51.414;10.362;2022-10-03T02:07:11;26.00;;;3.60;;
18693;SDS011;9477;51.414;10.362;2022-10-03T02:09:25;15.73;;;3.03;;
18693;SDS011;9477;51.414;10.362;2022-10-03T02:11:37;16.50;;;3.23;;
18693;SDS011;9477;51.414;10.362;2022-10-03T02:13:54;18.77;;;3.87;;
18693;SDS011;9477;51.414;10.362;2022-10-03T02:16:08;19.47;;;3.43;;
18693;SDS011;9477;51.414;10.362;2022-10-03T02:18:17;17.67;;;3.37;;
18693;SDS011;9477;51.414;10.362;2022-10-03T02:20:29;16.43;;;3.10;;
18693;SDS011;9477;51.414;10.362;2022-10-03T02:22:37;16.47;;;2.93;;
18693;SDS011;9477;51.414;10.362;2022-10-03T02:24:52;14.40;;;3.10;;
18693;SDS011;9477;51.414;10.362;2022-10-03T02:32:24;18.30;;;3.30;;
18693;SDS011;9477;51.414;10.362;2022-10-03T02:37:35;16.50;;;3.40;;
18693;SDS011;9477;51.414;10.362;2022-10-03T02:42:50;14.93;;;3.40;;
18693;SDS011;9477;51.414;10.362;2022-10-03T02:45:24;19.23;;;3.53;;
18693;SDS011;9477;51.414;10.362;2022-10-03T02:48:10;20.57;;;3.67;;
18693;SDS011;9477;51.414;10.362;2022-10-03T02:50:40;17.27;;;3.27;;
18693;SDS011;9477;51.414;10.362;2022-10-03T02:53:05;17.00;;;3.60;;
18693;SDS011;9477;51.414;10.362;2022-10-03T02:55:48;17.03;;;4.20;;
18693;SDS011;9477;51.414;10.362;2022-10-03T03:01:26;19.93;;;4.10;;
18693;SDS011;9477;51.414;10.362;2022-10-03T03:03:54;16.10;;;3.63;;
18693;SDS011;9477;51.414;10.362;2022-10-03T03:08:58;17.27;;;3.90;;
18693;SDS011;9477;51.414;10.362;2022-10-03T03:16:53;17.67;;;4.27;;
18693;SDS011;9477;51.414;10.362;2022-10-03T03:21:33;23.23;;;4.03;;
18693;SDS011;9477;51.414;10.362;2022-10-03T03:23:45;12.83;;;3.77;;
18693;SDS011;9477;51.414;10.362;2022-10-03T03:26:19;20.87;;;3.73;;
18693;SDS011;9477;51.414;10.362;2022-10-03T03:28:37;22.97;;;4.10;;
18693;SDS011;9477;51.414;10.362;2022-10-03T03:30:49;20.97;;;3.67;;
18693;SDS011;9477;51.414;10.362;2022-10-03T03:33:03;14.40;;;3.70;;
18693;SDS011;9477;51.414;10.362;2022-10-03T03:35:15;18.27;;;4.30;;
18693;SDS011;9477;51.414;10.362;2022-10-03T03:37:25;17.93;;;3.97;;
18693;SDS011;9477;51.414;10.362;2022-10-03T03:39:43;18.67;;;4.27;;
18693;SDS011;9477;51.414;10.362;2022-10-03T03:42:01;21.57;;;4.53;;
18693;SDS011;9477;51.414;10.362;2022-10-03T03:44:19;16.97;;;4.17;;
18693;SDS011;9477;51.414;10.362;2022-10-03T03:46:44;17.57;;;4.93;;
18693;SDS011;9477;51.414;10.362;2022-10-03T03:49:02;18.30;;;4.47;;
18693;SDS011;9477;51.414;10.362;2022-10-03T03:51:26;21.60;;;4.67;;
18693;SDS011;9477;51.414;10.362;2022-10-03T03:53:49;19.60;;;4.60;;
18693;SDS011;9477;51.414;10.362;2022-10-03T03:56:23;16.70;;;4.83;;
18693;SDS011;9477;51.414;10.362;2022-10-03T03:58:36;17.33;;;4.37;;
18693;SDS011;9477;51.414;10.362;2022-10-03T04:00:47;21.80;;;4.90;;
18693;SDS011;9477;51.414;10.362;2022-10-03T04:03:10;18.93;;;4.73;;
18693;SDS011;9477;51.414;10.362;2022-10-03T04:05:37;20.83;;;4.50;;
18693;SDS011;9477;51.414;10.362;2022-10-03T04:07:58;17.57;;;4.57;;
18693;SDS011;9477;51.414;10.362;2022-10-03T04:10:16;15.97;;;4.23;;
18693;SDS011;9477;51.414;10.362;2022-10-03T04:12:30;21.77;;;5.97;;
18693;SDS011;9477;51.414;10.362;2022-10-03T04:15:07;22.87;;;4.53;;
18693;SDS011;9477;51.414;10.362;2022-10-03T04:17:28;19.27;;;5.43;;
18693;SDS011;9477;51.414;10.362;2022-10-03T04:20:02;19.07;;;4.67;;
18693;SDS011;9477;51.414;10.362;2022-10-03T04:22:23;20.60;;;4.60;;
18693;SDS011;9477;51.414;10.362;2022-10-03T04:27:20;15.43;;;4.33;;
18693;SDS011;9477;51.414;10.362;2022-10-03T04:29:43;24.03;;;5.10;;
18693;SDS011;9477;51.414;10.362;2022-10-03T04:31:58;20.40;;;4.90;;
18693;SDS011;9477;51.414;10.362;2022-10-03T04:34:17;16.80;;;4.60;;
18693;SDS011;9477;51.414;10.362;2022-10-03T04:36:54;15.43;;;4.43;;
18693;SDS011;9477;51.414;10.362;2022-10-03T04:39:08;16.83;;;4.77;;
18693;SDS011;9477;51.414;10.362;2022-10-03T04:41:24;22.40;;;4.87;;
18693;SDS011;9477;51.414;10.362;2022-10-03T04:43:34;19.00;;;4.50;;
18693;SDS011;9477;51.414;10.362;2022-10-03T04:45:53;15.07;;;4.20;;
18693;SDS011;9477;51.414;10.362;2022-10-03T04:48:09;16.77;;;4.83;;
18693;SDS011;9477;51.414;10.362;2022-10-03T04:50:22;20.57;;;4.10;;
18693;SDS011;9477;51.414;10.362;2022-10-03T04:52:32;14.93;;;4.37;;
18693;SDS011;9477;51.414;10.362;2022-10-03T04:54:45;13.30;;;3.73;;
18693;SDS011;9477;51.414;10.362;2022-10-03T04:56:57;18.97;;;4.43;;
18693;SDS011;9477;51.414;10.362;2022-10-03T04:59:07;12.37;;;4.07;;
18693;SDS011;9477;51.414;10.362;2022-10-03T05:01:31;16.50;;;3.67;;
18693;SDS011;9477;51.414;10.362;2022-10-03T05:03:43;12.00;;;3.43;;
18693;SDS011;9477;51.414;10.362;2022-10-03T05:05:55;18.63;;;3.80;;
18693;SDS011;9477;51.414;10.362;2022-10-03T05:08:02;19.40;;;3.67;;
18693;SDS011;9477;51.414;10.362;2022-10-03T05:10:19;17.63;;;4.00;;
18693;SDS011;9477;51.414;10.362;2022-10-03T05:12:37;16.53;;;4.53;;
18693;SDS011;9477;51.414;10.362;2022-10-03T05:14:50;18.43;;;3.93;;
18693;SDS011;9477;51.414;10.362;2022-10-03T05:17:06;11.27;;;3.37;;
18693;SDS011;9477;51.414;10.362;2022-10-03T05:22:07;14.50;;;4.30;;
18693;SDS011;9477;51.414;10.362;2022-10-03T05:24:18;16.83;;;4.70;;
18693;SDS011;9477;51.414;10.362;2022-10-03T05:26:26;15.87;;;4.83;;
18693;SDS011;9477;51.414;10.362;2022-10-03T05:28:48;18.90;;;4.10;;
18693;SDS011;9477;51.414;10.362;2022-10-03T05:30:57;15.83;;;3.70;;
18693;SDS011;9477;51.414;10.362;2022-10-03T05:33:10;17.23;;;4.30;;
18693;SDS011;9477;51.414;10.362;2022-10-03T05:35:26;15.13;;;3.50;;
18693;SDS011;9477;51.414;10.362;2022-10-03T05:40:23;16.20;;;4.30;;
18693;SDS011;9477;51.414;10.362;2022-10-03T05:42:38;15.30;;;4.07;;
18693;SDS011;9477;51.414;10.362;2022-10-03T05:45:00;17.50;;;4.33;;
18693;SDS011;9477;51.414;10.362;2022-10-03T05:47:07;16.50;;;4.73;;
18693;SDS011;9477;51.414;10.362;2022-10-03T05:49:37;18.40;;;4.50;;
18693;SDS011;9477;51.414;10.362;2022-10-03T05:51:58;16.33;;;4.87;;
18693;SDS011;9477;51.414;10.362;2022-10-03T05:56:56;18.37;;;4.57;;
18693;SDS011;9477;51.414;10.362;2022-10-03T06:01:50;18.90;;;4.60;;
18693;SDS011;9477;51.414;10.362;2022-10-03T06:06:46;15.63;;;4.00;;
18693;SDS011;9477;51.414;10.362;2022-10-03T06:09:04;14.77;;;4.23;;
18693;SDS011;9477;51.414;10.362;2022-10-03T06:11:30;19.10;;;4.67;;
18693;SDS011;9477;51.414;10.362;2022-10-03T06:13:53;15.07;;;3.87;;
18693;SDS011;9477;51.414;10.362;2022-10-03T06:16:15;16.17;;;3.93;;
18693;SDS011;9477;51.414;10.362;2022-10-03T06:21:04;14.77;;;4.13;;
18693;SDS011;9477;51.414;10.362;2022-10-03T06:23:30;24.77;;;4.07;;
18693;SDS011;9477;51.414;10.362;2022-10-03T06:25:56;19.87;;;4.20;;
18693;SDS011;9477;51.414;10.362;2022-10-03T06:28:43;18.83;;;4.63;;
18693;SDS011;9477;51.414;10.362;2022-10-03T06:31:22;16.13;;;4.03;;
18693;SDS011;9477;51.414;10.362;2022-10-03T06:37:00;18.20;;;5.03;;
18693;SDS011;9477;51.414;10.362;2022-10-03T06:39:29;16.23;;;3.93;;
18693;SDS011;9477;51.414;10.362;2022-10-03T06:47:35;14.17;;;4.30;;
18693;SDS011;9477;51.414;10.362;2022-10-03T06:50:04;12.43;;;4.50;;
18693;SDS011;9477;51.414;10.362;2022-10-03T06:52:30;18.13;;;3.77;;
18693;SDS011;9477;51.414;10.362;2022-10-03T06:54:57;24.90;;;5.40;;
18693;SDS011;9477;51.414;10.362;2022-10-03T06:57:41;14.10;;;5.20;;
18693;SDS011;9477;51.414;10.362;2022-10-03T07:00:10;24.97;;;9.37;;
18693;SDS011;9477;51.414;10.362;2022-10-03T07:08:04;32.93;;;12.13;;
18693;SDS011;9477;51.414;10.362;2022-10-03T07:10:39;19.10;;;4.87;;
18693;SDS011;9477;51.414;10.362;2022-10-03T07:13:10;19.33;;;4.67;;
18693;SDS011;9477;51.414;10.362;2022-10-03T07:18:34;17.17;;;4.40;;
18693;SDS011;9477;51.414;10.362;2022-10-03T07:21:18;14.10;;;4.10;;
18693;SDS011;9477;51.414;10.362;2022-10-03T07:23:42;18.50;;;4.00;;
18693;SDS011;9477;51.414;10.362;2022-10-03T07:31:45;13.00;;;3.77;;
18693;SDS011;9477;51.414;10.362;2022-10-03T07:34:12;11.93;;;3.60;;
18693;SDS011;9477;51.414;10.362;2022-10-03T07:39:28;11.10;;;3.50;;
18693;SDS011;9477;51.414;10.362;2022-10-03T07:41:59;10.77;;;3.27;;
18693;SDS011;9477;51.414;10.362;2022-10-03T07:44:30;16.50;;;4.17;;
18693;SDS011;9477;51.414;10.362;2022-10-03T07:49:50;10.37;;;3.00;;
18693;SDS011;9477;51.414;10.362;2022-10-03T07:52:32;16.73;;;4.27;;
18693;SDS011;9477;51.414;10.362;2022-10-03T07:54:54;12.70;;;3.37;;
18693;SDS011;9477;51.414;10.362;2022-10-03T07:57:31;14.23;;;3.90;;
18693;SDS011;9477;51.414;10.362;2022-10-03T07:59:49;17.37;;;4.27;;
18693;SDS011;9477;51.414;10.362;2022-10-03T08:02:14;14.47;;;3.70;;
18693;SDS011;9477;51.414;10.362;2022-10-03T08:04:42;13.07;;;3.90;;
18693;SDS011;9477;51.414;10.362;2022-10-03T08:07:07;18.63;;;3.97;;
18693;SDS011;9477;51.414;10.362;2022-10-03T08:14:44;14.87;;;4.00;;
18693;SDS011;9477;51.414;10.362;2022-10-03T08:19:40;16.43;;;3.67;;
18693;SDS011;9477;51.414;10.362;2022-10-03T08:22:13;18.37;;;5.67;;
18693;SDS011;9477;51.414;10.362;2022-10-03T08:24:26;12.47;;;3.27;;
18693;SDS011;9477;51.414;10.362;2022-10-03T08:29:28;14.60;;;3.80;;
18693;SDS011;9477;51.414;10.362;2022-10-03T08:31:52;15.33;;;3.23;;
18693;SDS011;9477;51.414;10.362;2022-10-03T08:34:29;11.90;;;3.30;;
18693;SDS011;9477;51.414;10.362;2022-10-03T08:36:55;13.07;;;3.30;;
18693;SDS011;9477;51.414;10.362;2022-10-03T08:39:26;17.40;;;3.20;;
18693;SDS011;9477;51.414;10.362;2022-10-03T08:42:02;18.30;;;3.80;;
18693;SDS011;9477;51.414;10.362;2022-10-03T08:44:34;9.50;;;3.50;;
18693;SDS011;9477;51.414;10.362;2022-10-03T08:47:08;15.77;;;3.60;;
18693;SDS011;9477;51.414;10.362;2022-10-03T08:49:43;8.87;;;2.93;;
18693;SDS011;9477;51.414;10.362;2022-10-03T08:52:10;9.23;;;3.33;;
18693;SDS011;9477;51.414;10.362;2022-10-03T08:57:05;8.67;;;2.87;;
18693;SDS011;9477;51.414;10.362;2022-10-03T08:59:40;12.00;;;3.17;;
18693;SDS011;9477;51.414;10.362;2022-10-03T09:02:25;13.73;;;3.30;;
18693;SDS011;9477;51.414;10.362;2022-10-03T09:07:25;7.83;;;2.50;;
18693;SDS011;9477;51.414;10.362;2022-10-03T09:12:35;14.57;;;3.00;;
18693;SDS011;9477;51.414;10.362;2022-10-03T09:14:59;9.93;;;3.07;;
18693;SDS011;9477;51.414;10.362;2022-10-03T09:17:24;9.50;;;2.67;;
18693;SDS011;9477;51.414;10.362;2022-10-03T09:20:15;11.37;;;3.13;;
18693;SDS011;9477;51.414;10.362;2022-10-03T09:22:44;12.87;;;3.00;;
18693;SDS011;9477;51.414;10.362;2022-10-03T09:27:42;9.17;;;2.70;;
18693;SDS011;9477;51.414;10.362;2022-10-03T09:37:39;9.43;;;2.77;;
18693;SDS011;9477;51.414;10.362;2022-10-03T09:40:14;10.43;;;3.17;;
18693;SDS011;9477;51.414;10.362;2022-10-03T09:45:16;15.13;;;3.37;;
18693;SDS011;9477;51.414;10.362;2022-10-03T09:48:01;9.23;;;2.57;;
18693;SDS011;9477;51.414;10.362;2022-10-03T09:50:35;12.37;;;3.23;;
18693;SDS011;9477;51.414;10.362;2022-10-03T09:55:43;7.53;;;2.30;;
18693;SDS011;9477;51.414;10.362;2022-10-03T09:58:07;11.10;;;2.80;;
18693;SDS011;9477;51.414;10.362;2022-10-03T10:00:26;8.43;;;2.63;;
18693;SDS011;9477;51.414;10.362;2022-10-03T10:05:22;8.70;;;2.97;;
18693;SDS011;9477;51.414;10.362;2022-10-03T10:10:41;7.40;;;2.27;;
18693;SDS011;9477;51.414;10.362;2022-10-03T10:13:10;7.87;;;2.60;;
18693;SDS011;9477;51.414;10.362;2022-10-03T10:15:56;7.93;;;2.50;;
18693;SDS011;9477;51.414;10.362;2022-10-03T10:18:29;10.83;;;2.43;;
18693;SDS011;9477;51.414;10.362;2022-10-03T10:21:02;13.23;;;3.10;;
18693;SDS011;9477;51.414;10.362;2022-10-03T10:23:37;8.23;;;2.50;;
18693;SDS011;9477;51.414;10.362;2022-10-03T10:26:03;8.67;;;2.63;;
18693;SDS011;9477;51.414;10.362;2022-10-03T10:34:15;9.10;;;2.70;;
18693;SDS011;9477;51.414;10.362;2022-10-03T10:42:18;12.27;;;3.90;;
18693;SDS011;9477;51.414;10.362;2022-10-03T10:45:02;11.40;;;4.43;;
18693;SDS011;9477;51.414;10.362;2022-10-03T10:47:37;9.67;;;2.40;;
18693;SDS011;9477;51.414;10.362;2022-10-03T10:50:14;8.57;;;2.73;;
18693;SDS011;9477;51.414;10.362;2022-10-03T10:55:26;8.53;;;2.20;;
18693;SDS011;9477;51.414;10.362;2022-10-03T10:58:04;9.33;;;2.70;;
18693;SDS011;9477;51.414;10.362;2022-10-03T11:00:43;9.00;;;2.77;;
18693;SDS011;9477;51.414;10.362;2022-10-03T11:03:21;8.67;;;2.60;;
18693;SDS011;9477;51.414;10.362;2022-10-03T11:11:44;8.00;;;2.57;;
18693;SDS011;9477;51.414;10.362;2022-10-03T11:14:31;15.70;;;2.60;;
18693;SDS011;9477;51.414;10.362;2022-10-03T11:19:42;9.67;;;2.07;;
18693;SDS011;9477;51.414;10.362;2022-10-03T11:22:34;6.70;;;2.27;;
18693;SDS011;9477;51.414;10.362;2022-10-03T11:28:16;8.40;;;3.20;;
18693;SDS011;9477;51.414;10.362;2022-10-03T11:34:00;6.30;;;2.10;;
18693;SDS011;9477;51.414;10.362;2022-10-03T11:36:46;12.43;;;2.43;;
18693;SDS011;9477;51.414;10.362;2022-10-03T11:39:02;8.60;;;2.17;;
18693;SDS011;9477;51.414;10.362;2022-10-03T11:41:10;7.33;;;1.83;;
18693;SDS011;9477;51.414;10.362;2022-10-03T11:46:14;5.60;;;1.70;;
18693;SDS011;9477;51.414;10.362;2022-10-03T11:48:28;10.60;;;2.37;;
18693;SDS011;9477;51.414;10.362;2022-10-03T11:50:44;6.33;;;2.37;;
18693;SDS011;9477;51.414;10.362;2022-10-03T11:52:54;5.67;;;1.80;;
18693;SDS011;9477;51.414;10.362;2022-10-03T11:55:20;8.67;;;2.00;;
18693;SDS011;9477;51.414;10.362;2022-10-03T11:57:31;8.17;;;2.10;;
18693;SDS011;9477;51.414;10.362;2022-10-03T11:59:43;6.37;;;1.73;;
18693;SDS011;9477;51.414;10.362;2022-10-03T12:01:59;6.77;;;2.17;;
18693;SDS011;9477;51.414;10.362;2022-10-03T12:04:23;5.30;;;1.80;;
18693;SDS011;9477;51.414;10.362;2022-10-03T12:06:44;5.47;;;1.80;;
18693;SDS011;9477;51.414;10.362;2022-10-03T12:09:14;8.27;;;2.20;;
18693;SDS011;9477;51.414;10.362;2022-10-03T12:11:27;4.87;;;1.53;;
18693;SDS011;9477;51.414;10.362;2022-10-03T12:13:35;5.73;;;1.57;;
18693;SDS011;9477;51.414;10.362;2022-10-03T12:15:44;6.10;;;2.17;;
18693;SDS011;9477;51.414;10.362;2022-10-03T12:17:51;7.93;;;1.60;;
18693;SDS011;9477;51.414;10.362;2022-10-03T12:20:03;7.17;;;1.80;;
18693;SDS011;9477;51.414;10.362;2022-10-03T12:22:24;9.27;;;1.73;;
18693;SDS011;9477;51.414;10.362;2022-10-03T12:24:38;8.30;;;2.20;;
18693;SDS011;9477;51.414;10.362;2022-10-03T12:26:46;7.03;;;1.90;;
18693;SDS011;9477;51.414;10.362;2022-10-03T12:28:56;9.77;;;2.20;;
18693;SDS011;9477;51.414;10.362;2022-10-03T12:31:02;5.63;;;1.50;;
18693;SDS011;9477;51.414;10.362;2022-10-03T12:33:22;8.87;;;2.70;;
18693;SDS011;9477;51.414;10.362;2022-10-03T12:35:39;6.60;;;2.13;;
18693;SDS011;9477;51.414;10.362;2022-10-03T12:37:50;5.30;;;2.07;;
18693;SDS011;9477;51.414;10.362;2022-10-03T12:40:12;8.20;;;2.00;;
18693;SDS011;9477;51.414;10.362;2022-10-03T12:42:23;8.37;;;2.07;;
18693;SDS011;9477;51.414;10.362;2022-10-03T12:44:33;8.00;;;1.97;;
18693;SDS011;9477;51.414;10.362;2022-10-03T12:46:45;8.03;;;1.87;;
18693;SDS011;9477;51.414;10.362;2022-10-03T12:49:01;4.63;;;1.40;;
18693;SDS011;9477;51.414;10.362;2022-10-03T12:51:12;7.13;;;1.83;;
18693;SDS011;9477;51.414;10.362;2022-10-03T12:53:31;8.23;;;3.00;;
18693;SDS011;9477;51.414;10.362;2022-10-03T12:55:43;6.33;;;2.23;;
18693;SDS011;9477;51.414;10.362;2022-10-03T12:58:00;5.93;;;1.80;;
18693;SDS011;9477;51.414;10.362;2022-10-03T13:00:09;5.17;;;1.50;;
18693;SDS011;9477;51.414;10.362;2022-10-03T13:02:22;8.33;;;2.30;;
18693;SDS011;9477;51.414;10.362;2022-10-03T13:04:32;7.07;;;2.10;;
18693;SDS011;9477;51.414;10.362;2022-10-03T13:06:43;8.50;;;1.90;;
18693;SDS011;9477;51.414;10.362;2022-10-03T13:09:09;8.17;;;1.83;;
18693;SDS011;9477;51.414;10.362;2022-10-03T13:11:22;6.37;;;1.63;;
18693;SDS011;9477;51.414;10.362;2022-10-03T13:13:35;6.80;;;2.57;;
18693;SDS011;9477;51.414;10.362;2022-10-03T13:15:59;4.80;;;1.47;;
18693;SDS011;9477;51.414;10.362;2022-10-03T13:18:31;8.13;;;4.20;;
18693;SDS011;9477;51.414;10.362;2022-10-03T13:20:47;6.07;;;1.90;;
18693;SDS011;9477;51.414;10.362;2022-10-03T13:23:02;8.47;;;2.83;;
18693;SDS011;9477;51.414;10.362;2022-10-03T13:25:12;5.37;;;1.70;;
18693;SDS011;9477;51.414;10.362;2022-10-03T13:27:25;8.23;;;2.63;;
18693;SDS011;9477;51.414;10.362;2022-10-03T13:29:38;8.73;;;4.30;;
18693;SDS011;9477;51.414;10.362;2022-10-03T13:34:16;6.33;;;1.97;;
18693;SDS011;9477;51.414;10.362;2022-10-03T13:36:23;3.60;;;1.20;;
18693;SDS011;9477;51.414;10.362;2022-10-03T13:41:07;5.33;;;1.67;;
18693;SDS011;9477;51.414;10.362;2022-10-03T13:43:17;5.33;;;1.30;;
18693;SDS011;9477;51.414;10.362;2022-10-03T13:45:27;6.60;;;1.30;;
18693;SDS011;9477;51.414;10.362;2022-10-03T13:47:40;6.60;;;1.83;;
18693;SDS011;9477;51.414;10.362;2022-10-03T13:49:48;4.87;;;1.77;;
18693;SDS011;9477;51.414;10.362;2022-10-03T13:51:55;4.47;;;1.27;;
18693;SDS011;9477;51.414;10.362;2022-10-03T13:54:04;2.80;;;1.20;;
18693;SDS011;9477;51.414;10.362;2022-10-03T13:56:10;3.60;;;1.47;;
18693;SDS011;9477;51.414;10.362;2022-10-03T13:58:19;3.90;;;1.60;;
18693;SDS011;9477;51.414;10.362;2022-10-03T14:00:34;3.80;;;1.30;;
18693;SDS011;9477;51.414;10.362;2022-10-03T14:02:55;6.73;;;1.57;;
18693;SDS011;9477;51.414;10.362;2022-10-03T14:05:17;7.37;;;2.13;;
18693;SDS011;9477;51.414;10.362;2022-10-03T14:07:33;11.20;;;1.63;;
18693;SDS011;9477;51.414;10.362;2022-10-03T14:09:45;3.63;;;1.23;;
18693;SDS011;9477;51.414;10.362;2022-10-03T14:12:20;10.40;;;1.57;;
18693;SDS011;9477;51.414;10.362;2022-10-03T14:14:51;6.60;;;1.80;;
18693;SDS011;9477;51.414;10.362;2022-10-03T14:17:09;4.43;;;1.30;;
18693;SDS011;9477;51.414;10.362;2022-10-03T14:19:16;6.60;;;1.43;;
18693;SDS011;9477;51.414;10.362;2022-10-03T14:21:34;5.07;;;1.70;;
18693;SDS011;9477;51.414;10.362;2022-10-03T14:23:52;5.83;;;1.60;;
18693;SDS011;9477;51.414;10.362;2022-10-03T14:26:04;3.83;;;1.50;;
18693;SDS011;9477;51.414;10.362;2022-10-03T14:28:15;5.67;;;1.47;;
18693;SDS011;9477;51.414;10.362;2022-10-03T14:30:28;5.47;;;1.50;;
18693;SDS011;9477;51.414;10.362;2022-10-03T14:32:41;4.77;;;1.60;;
18693;SDS011;9477;51.414;10.362;2022-10-03T14:34:52;3.57;;;1.40;;
18693;SDS011;9477;51.414;10.362;2022-10-03T14:37:09;6.33;;;1.70;;
18693;SDS011;9477;51.414;10.362;2022-10-03T14:39:26;6.40;;;1.50;;
18693;SDS011;9477;51.414;10.362;2022-10-03T14:41:43;6.43;;;1.43;;
18693;SDS011;9477;51.414;10.362;2022-10-03T14:43:51;7.10;;;1.60;;
18693;SDS011;9477;51.414;10.362;2022-10-03T14:45:56;3.30;;;1.40;;
18693;SDS011;9477;51.414;10.362;2022-10-03T14:48:03;7.17;;;1.77;;
18693;SDS011;9477;51.414;10.362;2022-10-03T14:50:13;5.87;;;1.40;;
18693;SDS011;9477;51.414;10.362;2022-10-03T14:52:21;5.20;;;1.93;;
18693;SDS011;9477;51.414;10.362;2022-10-03T14:54:29;5.60;;;2.30;;
18693;SDS011;9477;51.414;10.362;2022-10-03T14:56:40;5.10;;;1.80;;
18693;SDS011;9477;51.414;10.362;2022-10-03T14:58:45;5.50;;;1.70;;
18693;SDS011;9477;51.414;10.362;2022-10-03T15:00:51;4.73;;;2.20;;
18693;SDS011;9477;51.414;10.362;2022-10-03T15:03:17;4.80;;;1.50;;
18693;SDS011;9477;51.414;10.362;2022-10-03T15:05:31;4.17;;;1.43;;
18693;SDS011;9477;51.414;10.362;2022-10-03T15:07:36;4.37;;;1.23;;
18693;SDS011;9477;51.414;10.362;2022-10-03T15:09:41;4.53;;;1.50;;
18693;SDS011;9477;51.414;10.362;2022-10-03T15:11:50;6.23;;;1.50;;
18693;SDS011;9477;51.414;10.362;2022-10-03T15:14:00;7.67;;;2.07;;
18693;SDS011;9477;51.414;10.362;2022-10-03T15:16:06;5.10;;;1.50;;
18693;SDS011;9477;51.414;10.362;2022-10-03T15:18:13;5.60;;;1.70;;
18693;SDS011;9477;51.414;10.362;2022-10-03T15:20:21;6.70;;;1.60;;
18693;SDS011;9477;51.414;10.362;2022-10-03T15:22:28;6.93;;;1.47;;
18693;SDS011;9477;51.414;10.362;2022-10-03T15:24:33;5.37;;;1.60;;
18693;SDS011;9477;51.414;10.362;2022-10-03T15:26:37;5.17;;;1.60;;
18693;SDS011;9477;51.414;10.362;2022-10-03T15:28:43;3.07;;;1.30;;
18693;SDS011;9477;51.414;10.362;2022-10-03T15:30:48;5.13;;;1.53;;
18693;SDS011;9477;51.414;10.362;2022-10-03T15:32:55;4.40;;;1.50;;
18693;SDS011;9477;51.414;10.362;2022-10-03T15:35:13;3.93;;;1.27;;
18693;SDS011;9477;51.414;10.362;2022-10-03T15:37:19;7.67;;;2.60;;
18693;SDS011;9477;51.414;10.362;2022-10-03T15:39:25;3.30;;;1.63;;
18693;SDS011;9477;51.414;10.362;2022-10-03T15:41:32;5.70;;;1.80;;
18693;SDS011;9477;51.414;10.362;2022-10-03T15:43:40;5.53;;;1.63;;
18693;SDS011;9477;51.414;10.362;2022-10-03T15:45:47;5.67;;;2.63;;
18693;SDS011;9477;51.414;10.362;2022-10-03T15:47:50;7.90;;;2.70;;
18693;SDS011;9477;51.414;10.362;2022-10-03T15:49:57;7.37;;;2.13;;
18693;SDS011;9477;51.414;10.362;2022-10-03T15:52:09;7.23;;;2.17;;
18693;SDS011;9477;51.414;10.362;2022-10-03T15:54:18;5.97;;;1.97;;
18693;SDS011;9477;51.414;10.362;2022-10-03T15:56:24;7.50;;;2.10;;
18693;SDS011;9477;51.414;10.362;2022-10-03T15:58:32;7.87;;;1.77;;
18693;SDS011;9477;51.414;10.362;2022-10-03T16:00:36;5.53;;;1.60;;
18693;SDS011;9477;51.414;10.362;2022-10-03T16:02:43;3.37;;;1.50;;
18693;SDS011;9477;51.414;10.362;2022-10-03T16:04:52;5.23;;;1.57;;
18693;SDS011;9477;51.414;10.362;2022-10-03T16:06:59;4.97;;;1.57;;
18693;SDS011;9477;51.414;10.362;2022-10-03T16:09:06;4.57;;;2.43;;
18693;SDS011;9477;51.414;10.362;2022-10-03T16:11:18;6.00;;;1.97;;
18693;SDS011;9477;51.414;10.362;2022-10-03T16:13:27;7.93;;;2.30;;
18693;SDS011;9477;51.414;10.362;2022-10-03T16:15:41;9.47;;;3.00;;
18693;SDS011;9477;51.414;10.362;2022-10-03T16:17:55;6.17;;;1.80;;
18693;SDS011;9477;51.414;10.362;2022-10-03T16:20:04;6.63;;;1.90;;
18693;SDS011;9477;51.414;10.362;2022-10-03T16:22:18;6.83;;;2.10;;
18693;SDS011;9477;51.414;10.362;2022-10-03T16:24:28;7.83;;;1.97;;